Terminal Aerodrome Forecast
Issued by NWS Tulsa, OK

Home | Current Version | Previous Version | Text Only | Print | Product List | Glossary On
Versions: 1 2 3 4 5 6 7 8 9 10 11 12 13 14 15
000
FTUS44 KTSA 012300
TAFTUL
TAF
KTUL 012320Z 0200/0224 17019G25KT P6SM SCT070 BKN080 BKN250
     FM020100 18012KT P6SM VCTS SCT050CB BKN250
      TEMPO 0202/0206 VRB15G30KT 5SM -TSRA BKN040CB
     FM020600 VRB06KT P6SM BKN080
     FM021500 16010KT P6SM OVC120=

USA.gov is the U.S. government's official web portal to all federal, state and local government web resources and services.